Time;durP1;ratioP1;P1;durP2;ratioP2;P2;SDS_P1;SDS_P2;PMS_P1;PMS_P2;Temp;Humidity;BMP_temperature;BMP_pressure;BME280_temperature;BME280_humidity;BME280_pressure;Samples;Min_cycle;Max_cycle;Signal;HPM_P1;HPM_P2
2023/02/23 00:00:22;;;;;;;18.75;10.55;;;3.70;99.90;;;;;;5010130;28;20022;-83
2023/02/23 00:02:48;;;;;;;21.67;11.50;;;3.80;99.90;;;;;;5007695;28;20038;-83
2023/02/23 00:05:16;;;;;;;19.20;10.43;;;3.90;99.90;;;;;;5011914;28;20037;-83
2023/02/23 00:07:45;;;;;;;16.48;10.55;;;4.00;99.90;;;;;;5009317;28;20042;-83
2023/02/23 00:10:14;;;;;;;18.58;10.50;;;4.10;99.90;;;;;;5009486;28;20073;-83
2023/02/23 00:12:41;;;;;;;15.35;10.20;;;4.20;99.90;;;;;;5007720;28;20397;-83
2023/02/23 00:15:08;;;;;;;20.30;11.60;;;4.20;99.90;;;;;;5003159;28;20073;-83
2023/02/23 00:17:35;;;;;;;18.85;10.05;;;4.20;99.90;;;;;;5001800;28;20034;-83
2023/02/23 00:20:06;;;;;;;18.23;10.20;;;4.20;99.90;;;;;;5006212;28;20041;-83
2023/02/23 00:22:33;;;;;;;16.63;10.70;;;4.20;99.90;;;;;;5009022;28;20041;-83
2023/02/23 00:24:59;;;;;;;17.00;10.30;;;4.30;99.90;;;;;;5007790;28;20034;-83
2023/02/23 00:27:25;;;;;;;17.52;10.77;;;4.30;99.90;;;;;;5008873;28;20038;-82
2023/02/23 00:29:51;;;;;;;17.27;10.77;;;4.30;99.90;;;;;;5011636;28;20058;-83
2023/02/23 00:32:20;;;;;;;16.95;11.00;;;4.40;99.90;;;;;;5007686;28;20048;-83
2023/02/23 00:34:49;;;;;;;21.98;11.00;;;4.50;99.90;;;;;;5004476;28;20053;-83
2023/02/23 00:37:17;;;;;;;19.95;10.23;;;4.60;99.90;;;;;;5008519;28;20025;-83
2023/02/23 00:39:42;;;;;;;21.00;11.18;;;4.60;99.90;;;;;;5010453;28;20093;-83
2023/02/23 00:42:09;;;;;;;20.58;11.10;;;4.70;99.90;;;;;;5008673;28;20048;-82
2023/02/23 00:44:39;;;;;;;21.25;12.65;;;4.70;99.90;;;;;;5006829;28;20026;-83
2023/02/23 00:47:06;;;;;;;20.20;10.43;;;4.70;99.90;;;;;;5008223;28;20026;-83
2023/02/23 00:49:32;;;;;;;20.20;11.70;;;4.70;99.90;;;;;;5009962;28;20042;-83
2023/02/23 00:51:58;;;;;;;16.50;11.00;;;4.80;99.90;;;;;;5006177;28;20038;-83
2023/02/23 00:54:24;;;;;;;19.02;10.93;;;4.80;99.90;;;;;;5016596;28;20034;-83
2023/02/23 00:56:50;;;;;;;15.70;9.25;;;4.70;99.90;;;;;;5010404;28;20042;-83
2023/02/23 00:59:17;;;;;;;16.08;9.60;;;4.70;99.90;;;;;;5010613;28;20113;-83
2023/02/23 01:01:43;;;;;;;15.43;9.35;;;4.60;99.90;;;;;;5009233;28;20049;-83
2023/02/23 01:04:11;;;;;;;16.45;10.32;;;4.60;99.90;;;;;;5013694;28;20026;-83
2023/02/23 01:06:37;;;;;;;18.52;10.38;;;4.50;99.90;;;;;;5019577;28;20026;-82
2023/02/23 01:09:12;;;;;;;15.82;9.80;;;4.50;99.90;;;;;;5011423;28;20045;-83
2023/02/23 01:11:40;;;;;;;16.92;10.25;;;4.50;99.90;;;;;;5013815;28;20096;-83
2023/02/23 01:14:06;;;;;;;22.33;11.02;;;4.50;99.90;;;;;;5012575;28;20013;-83
2023/02/23 01:16:37;;;;;;;19.05;9.40;;;4.60;99.90;;;;;;5008000;28;20026;-83
2023/02/23 01:19:04;;;;;;;18.73;10.00;;;4.70;99.90;;;;;;5009334;28;20029;-83
2023/02/23 01:21:32;;;;;;;16.88;10.43;;;4.60;99.90;;;;;;5008155;28;20129;-83
2023/02/23 01:23:59;;;;;;;19.55;10.52;;;4.60;99.90;;;;;;5011427;28;20030;-83
2023/02/23 01:26:27;;;;;;;21.73;10.75;;;4.60;99.90;;;;;;5011886;28;20038;-83
2023/02/23 01:28:59;;;;;;;17.90;9.27;;;4.60;99.90;;;;;;5009400;28;20034;-84
2023/02/23 01:31:26;;;;;;;17.10;10.27;;;4.70;99.90;;;;;;5009890;28;20070;-83
2023/02/23 01:33:53;;;;;;;15.38;9.43;;;4.70;99.90;;;;;;5007688;28;20064;-83
2023/02/23 01:36:19;;;;;;;17.85;9.57;;;4.70;99.90;;;;;;5006151;28;20056;-83
2023/02/23 01:38:45;;;;;;;17.35;9.30;;;4.70;99.90;;;;;;5006411;28;20061;-83
2023/02/23 01:41:11;;;;;;;17.45;9.85;;;4.70;99.90;;;;;;5011554;28;20026;-83
2023/02/23 01:43:54;;;;;;;19.05;10.00;;;4.80;99.90;;;;;;5014620;28;20030;-84
2023/02/23 01:46:19;;;;;;;16.70;8.95;;;4.80;99.90;;;;;;5013380;28;20037;-83
2023/02/23 01:48:45;;;;;;;19.77;10.25;;;4.70;99.90;;;;;;5009919;28;20051;-83
2023/02/23 01:51:18;;;;;;;11.80;8.65;;;4.70;99.90;;;;;;5017957;28;20034;-83
2023/02/23 01:54:09;;;;;;;18.42;9.20;;;4.60;99.90;;;;;;5022031;28;20025;-83
2023/02/23 01:56:42;;;;;;;15.82;9.63;;;4.60;99.90;;;;;;5018740;28;20545;-83
2023/02/23 01:59:14;;;;;;;18.45;10.70;;;4.50;99.90;;;;;;5015319;28;20034;-83
2023/02/23 02:01:41;;;;;;;18.30;10.00;;;4.50;99.90;;;;;;5020722;28;20034;-86
2023/02/23 02:04:15;;;;;;;16.23;10.35;;;4.50;99.90;;;;;;5013452;28;20533;-85
2023/02/23 02:06:44;;;;;;;17.80;10.18;;;4.60;99.90;;;;;;5015100;28;20370;-87
2023/02/23 02:09:17;;;;;;;19.13;10.18;;;4.70;99.90;;;;;;5017566;28;20037;-85
2023/02/23 02:11:45;;;;;;;17.98;9.32;;;4.60;99.90;;;;;;5004322;28;20054;-86
2023/02/23 02:14:24;;;;;;;13.27;9.95;;;4.70;99.90;;;;;;5015106;28;20033;-86
2023/02/23 02:17:07;;;;;;;18.58;11.10;;;4.70;99.90;;;;;;5014997;28;20029;-85
2023/02/23 02:19:50;;;;;;;17.05;10.30;;;4.70;99.90;;;;;;5015471;28;20196;-86
2023/02/23 02:22:43;;;;;;;18.33;10.45;;;4.70;99.90;;;;;;5018380;28;20037;-84
2023/02/23 02:25:27;;;;;;;13.38;9.43;;;4.70;99.90;;;;;;5011170;28;20025;-86
2023/02/23 02:28:28;;;;;;;14.07;8.68;;;4.70;99.90;;;;;;5017504;28;20041;-86
2023/02/23 02:31:36;;;;;;;17.02;10.32;;;4.80;99.90;;;;;;5017771;28;20045;-86
2023/02/23 02:34:37;;;;;;;17.83;9.35;;;4.80;99.90;;;;;;5003430;28;20075;-86
2023/02/23 02:37:22;;;;;;;16.52;9.55;;;4.80;99.90;;;;;;5008120;28;20081;-86
2023/02/23 02:40:15;;;;;;;17.83;9.93;;;4.70;99.90;;;;;;5015058;28;20030;-86
2023/02/23 02:42:50;;;;;;;18.45;9.30;;;4.70;99.90;;;;;;5021140;28;20188;-86
2023/02/23 02:45:28;;;;;;;19.98;10.93;;;4.70;99.90;;;;;;5016225;28;20033;-85
2023/02/23 02:48:13;;;;;;;13.73;8.75;;;4.80;99.90;;;;;;5021916;28;20030;-85
2023/02/23 02:51:02;;;;;;;12.00;8.23;;;4.70;99.90;;;;;;5013125;28;20045;-86
2023/02/23 02:53:40;;;;;;;16.60;9.20;;;4.60;99.90;;;;;;5015898;28;20026;-85
2023/02/23 02:56:10;;;;;;;19.52;9.73;;;4.60;99.90;;;;;;5015007;28;20041;-87
2023/02/23 02:58:42;;;;;;;14.52;8.50;;;4.60;99.90;;;;;;5018015;28;20038;-86
2023/02/23 04:17:43;;;;;;;18.48;9.93;;;5.30;99.90;;;;;;5010745;28;20042;-86
2023/02/23 04:20:13;;;;;;;15.48;7.97;;;5.30;99.90;;;;;;5011355;28;20037;-87
2023/02/23 04:22:45;;;;;;;16.33;8.50;;;5.30;99.90;;;;;;5007447;28;20034;-87
2023/02/23 04:25:13;;;;;;;12.95;7.78;;;5.30;99.90;;;;;;5014503;28;20032;-86
2023/02/23 04:27:41;;;;;;;18.02;9.32;;;5.30;99.90;;;;;;4997377;28;20030;-86
2023/02/23 04:30:10;;;;;;;19.23;8.27;;;5.20;99.90;;;;;;5011311;28;20026;-86
2023/02/23 04:32:36;;;;;;;16.75;9.45;;;5.10;99.90;;;;;;5012677;28;20034;-87
2023/02/23 04:35:01;;;;;;;13.55;8.73;;;5.10;99.90;;;;;;5018935;28;20123;-87
2023/02/23 04:37:27;;;;;;;15.32;8.38;;;5.00;99.90;;;;;;5017029;28;20049;-86
2023/02/23 04:39:53;;;;;;;12.77;8.50;;;5.10;99.90;;;;;;5022200;28;20037;-86
2023/02/23 04:42:21;;;;;;;14.27;8.38;;;5.10;99.90;;;;;;5016828;28;20123;-86
2023/02/23 04:44:47;;;;;;;17.38;8.23;;;5.10;99.90;;;;;;5014418;28;20058;-86
2023/02/23 04:47:16;;;;;;;18.75;9.15;;;5.10;99.90;;;;;;5013109;28;20044;-86
2023/02/23 04:49:45;;;;;;;14.50;9.05;;;5.10;99.90;;;;;;5013671;28;20026;-86
2023/02/23 04:52:11;;;;;;;14.20;8.93;;;5.10;99.90;;;;;;5002245;28;20102;-87
2023/02/23 04:54:42;;;;;;;17.73;10.00;;;5.10;99.90;;;;;;5013842;28;20532;-87
2023/02/23 04:57:08;;;;;;;20.20;10.77;;;5.10;99.90;;;;;;5018996;28;20026;-87
2023/02/23 04:59:34;;;;;;;17.10;9.93;;;5.10;99.90;;;;;;5012795;28;20030;-85
2023/02/23 05:02:00;;;;;;;14.55;10.10;;;5.10;99.90;;;;;;5018096;28;20153;-85
2023/02/23 05:04:26;;;;;;;20.15;10.13;;;5.10;99.90;;;;;;5021037;28;20026;-86
2023/02/23 05:06:52;;;;;;;18.42;9.73;;;5.20;99.90;;;;;;5018420;28;20422;-86
2023/02/23 05:09:20;;;;;;;15.40;9.80;;;5.30;99.90;;;;;;5013409;28;20040;-86
2023/02/23 05:11:49;;;;;;;21.10;10.70;;;5.20;99.90;;;;;;5013703;28;20026;-87
2023/02/23 05:14:14;;;;;;;;;;;5.30;99.90;;;;;;5015090;28;20038;-86
2023/02/23 05:16:40;;;;;;;17.90;10.10;;;5.40;99.90;;;;;;5020337;28;19921;-87
2023/02/23 05:19:06;;;;;;;22.63;10.60;;;5.40;99.90;;;;;;5019944;28;20013;-87
2023/02/23 05:21:32;;;;;;;19.17;10.15;;;5.40;99.90;;;;;;5030666;28;20048;-87
2023/02/23 05:24:01;;;;;;;19.35;10.32;;;5.50;99.90;;;;;;5024394;28;20033;-87
2023/02/23 05:26:27;;;;;;;;;;;5.50;99.90;;;;;;5011484;28;20105;-86
2023/02/23 05:28:53;;;;;;;19.15;9.43;;;5.50;99.90;;;;;;5026292;28;19968;-86
2023/02/23 05:31:25;;;;;;;20.17;9.75;;;5.50;99.90;;;;;;5011245;28;20046;-86
2023/02/23 05:33:51;;;;;;;17.65;10.85;;;5.50;99.90;;;;;;5015407;28;20156;-88
2023/02/23 05:36:19;;;;;;;18.73;11.07;;;5.50;99.90;;;;;;5020174;28;20077;-88
2023/02/23 05:38:46;;;;;;;19.17;10.10;;;5.50;99.90;;;;;;5021226;28;20060;-87
2023/02/23 05:41:14;;;;;;;18.08;10.88;;;5.50;99.90;;;;;;5015853;28;20706;-87
2023/02/23 05:43:41;;;;;;;26.10;11.23;;;5.40;99.90;;;;;;5017752;28;20018;-87
2023/02/23 05:46:13;;;;;;;20.38;10.77;;;5.40;99.90;;;;;;5018990;28;20025;-86
2023/02/23 05:48:39;;;;;;;20.10;10.18;;;5.40;99.90;;;;;;5021425;28;20444;-88
2023/02/23 05:51:08;;;;;;;17.77;9.98;;;5.40;99.90;;;;;;5020880;28;20180;-86
2023/02/23 05:53:35;;;;;;;16.80;10.15;;;5.40;99.90;;;;;;5023012;28;20034;-87
2023/02/23 05:56:02;;;;;;;18.73;10.77;;;5.30;99.90;;;;;;5021620;28;20513;-88
2023/02/23 05:58:28;;;;;;;16.55;9.70;;;5.30;99.90;;;;;;5020339;28;20042;-87
2023/02/23 06:00:57;;;;;;;16.88;10.18;;;5.30;99.90;;;;;;5014904;28;20046;-87
2023/02/23 06:03:23;;;;;;;15.55;9.25;;;5.30;99.90;;;;;;5035639;28;20041;-87
2023/02/23 06:05:50;;;;;;;16.25;9.48;;;5.30;99.90;;;;;;5017621;28;20029;-86
2023/02/23 06:08:18;;;;;;;17.52;11.40;;;5.30;99.90;;;;;;5022349;28;20030;-86
2023/02/23 06:11:02;;;;;;;20.10;10.93;;;5.30;99.90;;;;;;5020202;28;20265;-88
2023/02/23 06:13:30;;;;;;;23.45;12.40;;;5.30;99.90;;;;;;5023131;28;20060;-86
2023/02/23 06:15:58;;;;;;;18.73;10.93;;;5.40;99.90;;;;;;5015417;28;20449;-87
2023/02/23 06:18:24;;;;;;;20.45;11.30;;;5.40;99.90;;;;;;5012446;28;20670;-87
2023/02/23 06:20:50;;;;;;;22.63;12.02;;;5.50;99.90;;;;;;5022568;28;20030;-88
2023/02/23 06:23:17;;;;;;;21.05;10.63;;;5.50;99.90;;;;;;5025236;28;20562;-87
2023/02/23 06:25:45;;;;;;;18.85;10.50;;;5.50;99.90;;;;;;5016839;28;20053;-88
2023/02/23 06:28:12;;;;;;;22.23;12.30;;;5.60;99.90;;;;;;5023169;28;20089;-88
2023/02/23 06:30:38;;;;;;;23.50;12.25;;;5.60;99.90;;;;;;5021093;28;20124;-87
2023/02/23 06:33:06;;;;;;;19.48;10.98;;;5.60;99.90;;;;;;5025348;28;20030;-87
2023/02/23 06:35:33;;;;;;;18.27;10.38;;;5.60;99.90;;;;;;5021535;28;20026;-88
2023/02/23 06:38:00;;;;;;;19.55;10.85;;;5.60;99.90;;;;;;5026696;28;20072;-89
2023/02/23 06:40:26;;;;;;;21.25;10.60;;;5.60;99.90;;;;;;5021555;28;20105;-88
2023/02/23 06:42:52;;;;;;;15.48;9.70;;;5.50;99.90;;;;;;5018628;28;20267;-85
2023/02/23 06:45:18;;;;;;;16.33;9.90;;;5.50;99.90;;;;;;5012545;28;20117;-84
2023/02/23 06:47:48;;;;;;;17.45;10.57;;;5.60;99.90;;;;;;5015291;28;20054;-86
2023/02/23 06:50:14;;;;;;;17.75;10.45;;;5.60;99.90;;;;;;5010754;28;20090;-87
2023/02/23 06:52:42;;;;;;;18.25;10.43;;;5.60;99.90;;;;;;5008666;28;20029;-88
2023/02/23 06:55:18;;;;;;;23.60;10.55;;;5.60;99.90;;;;;;5012844;28;20057;-86
2023/02/23 06:58:03;;;;;;;16.90;10.68;;;5.60;99.90;;;;;;5011634;28;20026;-87
2023/02/23 07:00:29;;;;;;;17.73;10.73;;;5.60;99.90;;;;;;5018063;28;20041;-87
2023/02/23 07:02:59;;;;;;;20.00;11.18;;;5.60;99.90;;;;;;5017501;28;20026;-86
2023/02/23 07:05:25;;;;;;;16.90;10.75;;;5.60;99.90;;;;;;5019378;28;20034;-86
2023/02/23 07:07:54;;;;;;;19.23;11.13;;;5.70;99.90;;;;;;5010313;28;20022;-86
2023/02/23 07:10:19;;;;;;;22.35;11.57;;;5.70;99.90;;;;;;5013974;28;20038;-86
2023/02/23 07:12:45;;;;;;;19.92;11.80;;;5.80;99.90;;;;;;5009139;28;20851;-86
2023/02/23 07:15:11;;;;;;;20.67;10.73;;;5.80;99.90;;;;;;5030543;28;20034;-87
2023/02/23 07:17:37;;;;;;;20.20;11.38;;;5.90;99.90;;;;;;5023688;28;20037;-86
2023/02/23 07:20:04;;;;;;;21.10;10.68;;;5.90;99.90;;;;;;5020834;28;20045;-86
2023/02/23 07:22:30;;;;;;;18.83;10.00;;;6.00;99.90;;;;;;5019501;28;20126;-85
2023/02/23 07:24:56;;;;;;;19.67;11.00;;;6.00;99.90;;;;;;5021803;28;20437;-85
2023/02/23 07:27:26;;;;;;;19.40;11.80;;;6.10;99.90;;;;;;5023437;28;20497;-86
2023/02/23 07:29:55;;;;;;;19.00;11.50;;;6.20;99.90;;;;;;5026094;28;20046;-84
2023/02/23 07:32:21;;;;;;;20.42;11.48;;;6.30;99.90;;;;;;4999745;28;20632;-85
2023/02/23 07:34:48;;;;;;;18.85;11.05;;;6.40;99.90;;;;;;5028469;28;20064;-84
2023/02/23 07:37:15;;;;;;;18.27;11.45;;;6.40;99.90;;;;;;4999789;28;20044;-85
2023/02/23 07:39:42;;;;;;;21.88;11.93;;;6.50;99.90;;;;;;5019425;28;20026;-84
2023/02/23 07:42:08;;;;;;;23.63;12.52;;;6.60;99.90;;;;;;5005227;28;20386;-85
2023/02/23 07:44:34;;;;;;;23.20;13.35;;;6.60;99.90;;;;;;5019851;28;20041;-85
2023/02/23 07:47:01;;;;;;;24.90;12.82;;;6.80;99.90;;;;;;5010522;28;20027;-85
2023/02/23 07:49:27;;;;;;;21.35;12.40;;;6.80;99.90;;;;;;5022018;28;20034;-85
2023/02/23 07:51:52;;;;;;;24.40;11.63;;;6.90;99.90;;;;;;5016360;28;20018;-84
2023/02/23 07:54:18;;;;;;;24.85;12.50;;;6.90;99.90;;;;;;5019131;28;20034;-84
2023/02/23 07:56:43;;;;;;;20.02;12.93;;;7.00;99.90;;;;;;5009192;28;20045;-84
2023/02/23 07:59:15;;;;;;;22.75;13.55;;;7.00;99.90;;;;;;5019191;28;20033;-84
2023/02/23 08:01:41;;;;;;;23.83;13.32;;;6.90;99.90;;;;;;5012495;28;20108;-84
2023/02/23 08:04:10;;;;;;;25.50;14.38;;;6.90;99.90;;;;;;5016333;28;20018;-85
2023/02/23 08:06:36;;;;;;;25.42;13.57;;;7.00;99.90;;;;;;5016905;28;20072;-86
2023/02/23 08:09:06;;;;;;;26.77;13.90;;;7.00;99.90;;;;;;5014415;28;20038;-85
2023/02/23 08:11:33;;;;;;;26.90;14.73;;;7.00;99.90;;;;;;5015259;28;20076;-86
2023/02/23 08:13:59;;;;;;;29.85;15.43;;;7.00;99.90;;;;;;5019906;28;20025;-86
2023/02/23 08:16:30;;;;;;;29.63;13.82;;;7.10;99.90;;;;;;5014148;28;20026;-84
2023/02/23 08:18:57;;;;;;;22.88;11.98;;;7.10;99.90;;;;;;5026593;28;20029;-85
2023/02/23 08:21:24;;;;;;;25.80;14.15;;;7.10;99.90;;;;;;5016476;28;20105;-85
2023/02/23 08:23:50;;;;;;;22.23;12.45;;;7.20;99.90;;;;;;5013380;28;20025;-85
2023/02/23 08:26:16;;;;;;;26.17;13.93;;;7.20;99.90;;;;;;5029246;28;20053;-85
2023/02/23 08:28:44;;;;;;;29.77;14.57;;;7.30;99.90;;;;;;5016444;28;20113;-85
2023/02/23 08:31:11;;;;;;;;;;;7.40;99.90;;;;;;5023496;28;20073;-86
2023/02/23 08:33:38;;;;;;;25.00;13.10;;;7.40;99.90;;;;;;5008809;28;19913;-85
2023/02/23 08:36:05;;;;;;;27.08;13.73;;;7.40;99.90;;;;;;5011405;28;20117;-86
2023/02/23 08:38:30;;;;;;;25.83;14.45;;;7.50;99.90;;;;;;5020242;28;20057;-84
2023/02/23 08:41:00;;;;;;;25.38;14.10;;;7.50;99.90;;;;;;5027828;28;20033;-85
2023/02/23 08:43:26;;;;;;;29.45;15.48;;;7.60;99.90;;;;;;5017039;28;20026;-85
2023/02/23 08:45:55;;;;;;;27.80;14.23;;;7.60;99.90;;;;;;5014213;28;20038;-84
2023/02/23 08:48:21;;;;;;;23.65;13.75;;;7.70;99.90;;;;;;5019276;28;20034;-85
2023/02/23 08:50:48;;;;;;;27.80;14.32;;;7.80;99.90;;;;;;5018279;28;20038;-84
2023/02/23 08:53:18;;;;;;;27.02;14.65;;;7.90;99.90;;;;;;5011435;28;20046;-84
2023/02/23 08:55:47;;;;;;;32.42;15.52;;;8.00;99.90;;;;;;5018955;28;20050;-84
2023/02/23 08:58:15;;;;;;;27.25;13.60;;;8.10;99.90;;;;;;5010435;28;20018;-84
2023/02/23 09:00:41;;;;;;;;;;;8.10;99.90;;;;;;5017335;28;20042;-83
2023/02/23 09:03:07;;;;;;;22.70;11.77;;;8.20;99.90;;;;;;5013113;28;19910;-85
2023/02/23 09:05:35;;;;;;;26.85;13.70;;;8.30;99.90;;;;;;5026803;28;20052;-84
2023/02/23 09:08:02;;;;;;;29.70;13.57;;;8.30;99.90;;;;;;5013850;28;20053;-84
2023/02/23 09:10:34;;;;;;;24.70;13.85;;;8.40;99.90;;;;;;5021433;28;20138;-83
2023/02/23 09:13:00;;;;;;;29.05;13.50;;;8.40;99.90;;;;;;5017434;28;20041;-84
2023/02/23 09:15:26;;;;;;;24.58;12.43;;;8.50;99.90;;;;;;5027114;28;20042;-85
2023/02/23 09:17:53;;;;;;;22.35;13.32;;;8.60;99.90;;;;;;5011669;28;20022;-85
2023/02/23 09:20:19;;;;;;;25.45;10.77;;;8.70;99.90;;;;;;5017330;28;20050;-85
2023/02/23 09:22:48;;;;;;;15.30;8.70;;;8.90;99.90;;;;;;5018716;28;20034;-84
2023/02/23 09:25:23;;;;;;;21.42;11.60;;;8.90;99.90;;;;;;5014929;28;20030;-83
2023/02/23 09:27:53;;;;;;;16.17;9.32;;;8.90;99.90;;;;;;5014651;28;20086;-84
2023/02/23 09:30:26;;;;;;;22.95;12.38;;;9.00;99.90;;;;;;5021914;28;20030;-81
2023/02/23 09:32:57;;;;;;;22.60;11.60;;;9.00;99.90;;;;;;5011879;28;20570;-80
2023/02/23 09:35:24;;;;;;;17.27;9.15;;;9.10;99.90;;;;;;5004155;28;20045;-81
2023/02/23 09:37:54;;;;;;;12.00;6.97;;;9.10;99.90;;;;;;4997560;28;20042;-81
2023/02/23 09:40:26;;;;;;;15.77;9.02;;;9.00;99.90;;;;;;5010061;28;20021;-80
2023/02/23 09:43:13;;;;;;;16.98;7.72;;;9.00;99.90;;;;;;5021002;28;20045;-81
2023/02/23 09:46:15;;;;;;;11.50;6.38;;;8.90;99.90;;;;;;5016578;28;20030;-81
2023/02/23 09:48:47;;;;;;;13.35;8.25;;;9.00;99.90;;;;;;5015545;28;20057;-80
2023/02/23 09:51:19;;;;;;;21.10;10.93;;;8.90;99.90;;;;;;5016870;28;20120;-80
2023/02/23 09:53:57;;;;;;;22.20;11.45;;;9.00;99.90;;;;;;5018451;28;20056;-82
2023/02/23 09:56:31;;;;;;;18.75;10.60;;;9.00;99.90;;;;;;5014410;28;20026;-81
2023/02/23 09:59:03;;;;;;;16.83;9.10;;;9.10;99.90;;;;;;5017381;28;20036;-80
2023/02/23 10:01:46;;;;;;;15.73;8.65;;;9.10;99.90;;;;;;5035051;28;20394;-81
2023/02/23 10:04:35;;;;;;;14.02;8.98;;;9.20;99.90;;;;;;5015383;28;20518;-82
2023/02/23 10:07:15;;;;;;;21.40;10.88;;;9.20;99.90;;;;;;5023146;28;20026;-81
2023/02/23 10:10:00;;;;;;;17.77;10.85;;;9.30;99.90;;;;;;5026837;28;20389;-81
2023/02/23 10:12:55;;;;;;;16.70;9.90;;;9.20;99.90;;;;;;5015840;28;20038;-80
2023/02/23 10:15:44;;;;;;;16.13;8.38;;;9.30;99.90;;;;;;5020265;28;20034;-81
2023/02/23 10:18:34;;;;;;;15.00;8.93;;;9.30;99.90;;;;;;5014658;28;20034;-81
2023/02/23 10:21:10;;;;;;;22.33;7.90;;;9.40;99.90;;;;;;5019398;28;20026;-82
2023/02/23 10:23:45;;;;;;;15.13;9.18;;;9.40;99.90;;;;;;5023425;28;20026;-82
2023/02/23 10:26:18;;;;;;;12.93;7.43;;;9.40;99.90;;;;;;5012549;28;20053;-81
2023/02/23 10:28:44;;;;;;;13.18;7.15;;;9.50;99.90;;;;;;5019825;28;20069;-82
2023/02/23 10:31:41;;;;;;;9.57;7.13;;;9.50;99.90;;;;;;5028616;28;20046;-81
2023/02/23 10:34:14;;;;;;;11.52;7.25;;;9.50;99.90;;;;;;5011890;28;20450;-82
2023/02/23 10:36:50;;;;;;;17.23;8.65;;;9.50;99.90;;;;;;4998142;28;20050;-82
2023/02/23 10:39:18;;;;;;;12.70;7.88;;;9.50;99.90;;;;;;5020695;28;20042;-81
2023/02/23 10:41:47;;;;;;;11.98;6.75;;;9.50;99.90;;;;;;5017582;28;20034;-81
2023/02/23 10:44:21;;;;;;;14.45;7.03;;;9.60;99.90;;;;;;5024083;28;20044;-82
2023/02/23 10:46:56;;;;;;;17.48;9.82;;;9.60;99.90;;;;;;5022076;28;20237;-81
2023/02/23 10:49:36;;;;;;;12.15;7.82;;;9.70;99.90;;;;;;5008548;28;20034;-82
2023/02/23 10:52:02;;;;;;;14.13;8.02;;;9.70;99.90;;;;;;5009163;28;20497;-81
2023/02/23 10:54:43;;;;;;;18.20;10.35;;;9.80;99.90;;;;;;5019963;28;20041;-81
2023/02/23 10:57:23;;;;;;;14.68;8.50;;;9.80;99.90;;;;;;5026990;28;20133;-81
2023/02/23 11:00:25;;;;;;;8.25;6.20;;;9.80;99.90;;;;;;5020536;28;20044;-81
2023/02/23 11:02:52;;;;;;;13.98;7.05;;;9.90;99.90;;;;;;5022556;28;20054;-81
2023/02/23 11:05:45;;;;;;;15.48;8.70;;;10.00;99.90;;;;;;5016987;28;20046;-81
2023/02/23 11:08:18;;;;;;;14.05;8.13;;;10.00;99.90;;;;;;5035479;28;20037;-82
2023/02/23 11:11:14;;;;;;;14.35;9.02;;;10.20;99.90;;;;;;5018437;28;20057;-81
2023/02/23 11:13:48;;;;;;;14.45;7.18;;;10.30;99.90;;;;;;5016909;28;20368;-81
2023/02/23 11:16:15;;;;;;;12.85;5.35;;;10.40;99.90;;;;;;5023046;28;20036;-81
2023/02/23 11:18:55;;;;;;;15.20;8.07;;;10.40;99.90;;;;;;5025713;28;20033;-81
2023/02/23 11:21:28;;;;;;;11.00;6.60;;;10.40;99.90;;;;;;5018648;28;20026;-82
2023/02/23 11:23:57;;;;;;;12.10;6.82;;;10.40;99.90;;;;;;5021172;28;20042;-81
2023/02/23 11:26:29;;;;;;;12.57;7.57;;;10.30;99.90;;;;;;5012306;28;20065;-82
2023/02/23 11:29:11;;;;;;;11.90;5.60;;;10.30;99.90;;;;;;5020661;28;20054;-80
2023/02/23 11:31:39;;;;;;;10.75;6.53;;;10.40;99.90;;;;;;5009909;28;20102;-80
2023/02/23 11:34:06;;;;;;;10.32;6.75;;;10.40;99.90;;;;;;5017888;28;20146;-81
2023/02/23 11:36:36;;;;;;;12.23;6.30;;;10.50;99.90;;;;;;5017042;28;20042;-81
2023/02/23 11:39:07;;;;;;;12.82;5.80;;;10.60;99.90;;;;;;5020617;28;20037;-81
2023/02/23 11:41:34;;;;;;;15.27;6.38;;;10.80;99.90;;;;;;5013325;28;20061;-81
2023/02/23 11:44:01;;;;;;;11.50;5.47;;;10.80;99.90;;;;;;5020684;28;20534;-80
2023/02/23 11:46:30;;;;;;;9.35;5.80;;;10.90;99.90;;;;;;5017510;28;20034;-81
2023/02/23 11:49:11;;;;;;;8.48;5.93;;;11.00;99.90;;;;;;5021408;28;20065;-81
2023/02/23 11:51:47;;;;;;;9.80;5.28;;;11.00;99.90;;;;;;5016290;28;20041;-81
2023/02/23 11:54:33;;;;;;;9.55;5.35;;;11.00;99.90;;;;;;5023223;28;20583;-80
2023/02/23 11:57:03;;;;;;;10.23;4.95;;;11.00;99.90;;;;;;5017056;28;20057;-81
2023/02/23 11:59:35;;;;;;;11.00;5.65;;;11.00;99.90;;;;;;5032770;28;20037;-80
2023/02/23 12:02:18;;;;;;;12.23;6.07;;;11.10;99.90;;;;;;5011886;28;20039;-81
2023/02/23 12:04:48;;;;;;;10.02;4.95;;;11.10;99.90;;;;;;5016696;28;20164;-80
2023/02/23 12:07:24;;;;;;;9.52;5.75;;;11.00;99.90;;;;;;5017190;28;20138;-81
2023/02/23 12:09:58;;;;;;;7.65;5.00;;;11.00;99.90;;;;;;5014450;28;20060;-82
2023/02/23 12:12:27;;;;;;;11.43;5.38;;;10.90;99.90;;;;;;5026311;28;20038;-81
2023/02/23 12:15:04;;;;;;;8.00;4.32;;;11.00;99.90;;;;;;5016266;28;20034;-81
2023/02/23 12:17:37;;;;;;;8.02;5.47;;;11.20;99.90;;;;;;5022030;28;20026;-82
2023/02/23 12:20:17;;;;;;;10.80;5.55;;;11.10;99.90;;;;;;5021767;28;20185;-81
2023/02/23 12:22:53;;;;;;;7.30;4.82;;;11.10;99.90;;;;;;5018096;28;20045;-81
2023/02/23 12:26:00;;;;;;;11.73;5.90;;;11.10;99.90;;;;;;5024227;28;20029;-80
2023/02/23 12:28:42;;;;;;;10.00;6.20;;;10.90;99.90;;;;;;5022458;28;20094;-80
2023/02/23 12:31:32;;;;;;;5.65;3.90;;;10.90;99.90;;;;;;5017751;28;20061;-81
2023/02/23 12:34:03;;;;;;;8.75;4.50;;;10.90;99.90;;;;;;5015211;28;20041;-81
2023/02/23 12:36:37;;;;;;;12.05;5.75;;;10.90;99.90;;;;;;5001180;28;20422;-81
2023/02/23 12:39:29;;;;;;;9.73;5.50;;;11.00;99.90;;;;;;5015421;28;20112;-81
2023/02/23 12:42:28;;;;;;;7.05;4.28;;;11.10;99.90;;;;;;5017734;28;20038;-81
2023/02/23 12:45:05;;;;;;;8.80;4.88;;;11.20;99.90;;;;;;5028279;28;20006;-81
2023/02/23 12:47:52;;;;;;;8.40;5.15;;;11.20;99.90;;;;;;5009325;28;20124;-81
2023/02/23 12:50:36;;;;;;;9.50;4.15;;;11.00;99.90;;;;;;5016407;28;20038;-80
2023/02/23 12:53:39;;;;;;;8.15;4.43;;;11.10;99.90;;;;;;5024454;28;20033;-81
2023/02/23 12:56:23;;;;;;;8.68;4.85;;;11.00;99.90;;;;;;5014065;28;20029;-81
2023/02/23 12:59:13;;;;;;;6.93;4.30;;;11.10;99.90;;;;;;5023758;28;20041;-81
2023/02/23 13:01:46;;;;;;;12.02;5.20;;;11.10;99.90;;;;;;5016446;28;20099;-80
2023/02/23 13:04:27;;;;;;;8.43;4.80;;;11.20;99.90;;;;;;5024180;28;20013;-81
2023/02/23 13:07:09;;;;;;;7.65;4.60;;;11.30;99.90;;;;;;5019145;28;20040;-80
2023/02/23 13:09:50;;;;;;;11.23;5.32;;;11.20;99.90;;;;;;5020853;28;20514;-81
2023/02/23 13:12:22;;;;;;;10.40;5.10;;;11.30;99.90;;;;;;5011474;28;20036;-82
2023/02/23 13:15:20;;;;;;;5.10;3.67;;;11.30;99.90;;;;;;5024199;28;20612;-80
2023/02/23 13:18:08;;;;;;;7.30;3.88;;;11.60;99.90;;;;;;5019976;28;20034;-81
2023/02/23 13:20:42;;;;;;;5.20;3.38;;;11.70;99.90;;;;;;5019210;28;20025;-81
2023/02/23 13:23:26;;;;;;;10.30;5.25;;;11.80;99.90;;;;;;5018187;28;20006;-81
2023/02/23 13:25:56;;;;;;;7.97;4.78;;;11.80;99.90;;;;;;5021410;28;20501;-79
2023/02/23 13:28:46;;;;;;;7.25;4.18;;;11.90;99.90;;;;;;5020313;28;20042;-80
2023/02/23 13:31:19;;;;;;;6.30;3.70;;;11.90;99.90;;;;;;5016687;28;20071;-80
2023/02/23 13:33:46;;;;;;;10.63;5.18;;;11.90;99.90;;;;;;5021231;28;20045;-81
2023/02/23 13:36:11;;;;;;;7.03;4.40;;;12.00;99.90;;;;;;5018335;28;20065;-79
2023/02/23 13:39:15;;;;;;;7.80;4.82;;;11.90;99.90;;;;;;5016286;28;20112;-79
2023/02/23 13:41:58;;;;;;;8.15;4.60;;;11.80;99.90;;;;;;5022765;28;20065;-80
2023/02/23 13:45:02;;;;;;;10.27;5.07;;;11.80;99.90;;;;;;5030896;28;20029;-79
2023/02/23 13:47:52;;;;;;;7.10;3.90;;;11.90;99.90;;;;;;5014732;28;20220;-79
2023/02/23 13:50:36;;;;;;;6.38;4.05;;;12.00;99.90;;;;;;5013313;28;20037;-79
2023/02/23 13:53:06;;;;;;;8.45;4.22;;;12.00;99.90;;;;;;5009963;28;21541;-79
2023/02/23 13:55:36;;;;;;;7.85;4.40;;;12.00;99.90;;;;;;5013539;28;20026;-80
2023/02/23 13:58:16;;;;;;;6.78;4.55;;;12.10;99.90;;;;;;5016964;28;20026;-80
2023/02/23 14:00:43;;;;;;;6.97;4.00;;;11.90;99.90;;;;;;5008235;28;20062;-79
2023/02/23 14:03:25;;;;;;;5.57;4.03;;;11.90;99.90;;;;;;5023319;28;20025;-79
2023/02/23 14:05:58;;;;;;;8.13;4.22;;;12.00;99.90;;;;;;5027854;28;20033;-79
2023/02/23 14:08:36;;;;;;;7.97;4.40;;;12.10;99.90;;;;;;5021170;28;20072;-79
2023/02/23 14:11:02;;;;;;;7.40;4.80;;;12.20;99.90;;;;;;5019658;28;20108;-80
2023/02/23 14:13:39;;;;;;;10.32;4.63;;;12.10;99.90;;;;;;5012978;28;20086;-78
2023/02/23 14:16:13;;;;;;;7.57;4.15;;;12.10;99.90;;;;;;5012930;28;20116;-80
2023/02/23 14:19:12;;;;;;;10.57;5.05;;;11.90;99.90;;;;;;5019455;28;20036;-79
2023/02/23 14:21:48;;;;;;;7.28;4.10;;;11.90;99.90;;;;;;5026000;28;20029;-79
2023/02/23 14:24:20;;;;;;;9.88;4.75;;;11.90;99.90;;;;;;5023412;28;20072;-80
2023/02/23 14:27:08;;;;;;;7.03;4.47;;;11.80;99.90;;;;;;5027636;28;20022;-80